Time;durP1;ratioP1;P1;durP2;ratioP2;P2;SDS_P1;SDS_P2;PMS_P1;PMS_P2;Temp;Humidity;BMP_temperature;BMP_pressure;BME280_temperature;BME280_humidity;BME280_pressure;Samples;Min_cycle;Max_cycle;Signal;HPM_P1;HPM_P2
2022/04/03 00:00:48;;;;;;;4.43;2.60;;;14.90;77.90;;;;;;1997851;28;20638;-71
2022/04/03 00:01:48;;;;;;;5.30;2.73;;;15.00;78.00;;;;;;1997838;28;20170;-71
2022/04/03 00:02:46;;;;;;;4.72;2.90;;;15.00;78.00;;;;;;1997750;28;20322;-70
2022/04/03 00:03:45;;;;;;;4.23;3.10;;;15.00;78.00;;;;;;1997797;28;20368;-71
2022/04/03 00:04:44;;;;;;;5.83;3.33;;;15.00;78.00;;;;;;1997845;28;20166;-70
2022/04/03 00:05:43;;;;;;;5.57;3.20;;;15.00;78.00;;;;;;1997625;28;20409;-71
2022/04/03 00:06:42;;;;;;;5.47;3.40;;;15.00;78.00;;;;;;1997722;28;20649;-70
2022/04/03 00:07:41;;;;;;;4.00;2.80;;;15.00;78.00;;;;;;1997887;28;20248;-71
2022/04/03 00:08:40;;;;;;;5.70;2.83;;;15.00;78.00;;;;;;1997625;28;20186;-71
2022/04/03 00:09:38;;;;;;;3.75;2.63;;;15.00;78.10;;;;;;1997649;28;20233;-71
2022/04/03 00:10:37;;;;;;;5.53;3.20;;;15.00;78.10;;;;;;1997728;28;20242;-71
2022/04/03 00:11:35;;;;;;;5.33;2.97;;;15.00;78.20;;;;;;1997645;28;20194;-71
2022/04/03 00:12:34;;;;;;;4.27;3.57;;;15.00;78.10;;;;;;1997488;28;20174;-70
2022/04/03 00:13:33;;;;;;;4.87;3.23;;;15.00;78.20;;;;;;1996851;28;20166;-72
2022/04/03 00:14:31;;;;;;;3.53;3.00;;;15.00;78.10;;;;;;1996958;28;20206;-72
2022/04/03 00:15:30;;;;;;;3.80;2.77;;;15.00;78.10;;;;;;1997477;28;20166;-72
2022/04/03 00:16:29;;;;;;;5.17;3.27;;;15.00;78.20;;;;;;1997478;28;20558;-71
2022/04/03 00:17:28;;;;;;;4.88;2.97;;;15.00;78.20;;;;;;1996881;28;20197;-71
2022/04/03 00:18:26;;;;;;;5.30;2.90;;;14.90;78.10;;;;;;1997004;28;20638;-71
2022/04/03 00:19:26;;;;;;;5.70;2.50;;;15.00;78.20;;;;;;1997442;28;20409;-71
2022/04/03 00:20:24;;;;;;;3.42;2.65;;;15.00;78.20;;;;;;1997457;28;20208;-70
2022/04/03 00:21:23;;;;;;;3.93;2.60;;;15.00;78.30;;;;;;1997482;28;20251;-70
2022/04/03 00:22:23;;;;;;;3.87;2.73;;;15.00;78.30;;;;;;1997514;28;20578;-72
2022/04/03 00:23:23;;;;;;;4.00;3.20;;;14.90;78.20;;;;;;1997571;28;20650;-72
2022/04/03 00:24:22;;;;;;;4.88;3.15;;;15.00;78.30;;;;;;1997453;28;20638;-72
2022/04/03 00:25:20;;;;;;;4.27;3.23;;;15.00;78.20;;;;;;1997510;28;20180;-72
2022/04/03 00:26:19;;;;;;;5.80;3.40;;;14.90;78.20;;;;;;1997469;28;20182;-71
2022/04/03 00:27:18;;;;;;;4.27;2.70;;;14.90;78.20;;;;;;1997526;28;20305;-72
2022/04/03 00:28:17;;;;;;;7.60;2.50;;;14.90;78.30;;;;;;1997483;28;20166;-71
2022/04/03 00:29:15;;;;;;;3.75;2.58;;;14.90;78.30;;;;;;1997744;28;20614;-70
2022/04/03 00:30:15;;;;;;;3.80;2.40;;;14.90;78.20;;;;;;1997561;28;20205;-72
2022/04/03 00:31:13;;;;;;;4.53;2.80;;;14.90;78.30;;;;;;1997571;28;20201;-72
2022/04/03 00:32:12;;;;;;;2.87;2.20;;;14.90;78.30;;;;;;1997547;28;20202;-71
2022/04/03 00:33:11;;;;;;;3.33;2.80;;;14.90;78.20;;;;;;1997467;28;20420;-71
2022/04/03 00:34:10;;;;;;;7.25;3.05;;;14.90;78.30;;;;;;1997326;28;20198;-71
2022/04/03 00:35:09;;;;;;;4.33;2.83;;;14.90;78.30;;;;;;1997399;28;20178;-72
2022/04/03 00:36:07;;;;;;;5.07;2.80;;;14.90;78.40;;;;;;1997452;28;20249;-71
2022/04/03 00:37:06;;;;;;;4.53;3.20;;;14.90;78.40;;;;;;1997475;28;20469;-70
2022/04/03 00:38:05;;;;;;;4.43;2.87;;;14.90;78.40;;;;;;1997475;28;20217;-70
2022/04/03 00:39:03;;;;;;;4.97;3.17;;;14.90;78.30;;;;;;1996455;28;20185;-70
2022/04/03 00:40:03;;;;;;;5.63;2.87;;;14.90;78.40;;;;;;1997509;28;20631;-70
2022/04/03 00:41:02;;;;;;;4.25;2.50;;;14.90;78.40;;;;;;1997086;28;20177;-70
2022/04/03 00:42:01;;;;;;;4.80;2.90;;;14.90;78.40;;;;;;1997514;28;20201;-70
2022/04/03 00:42:59;;;;;;;3.20;2.50;;;14.90;78.40;;;;;;1997504;28;20767;-70
2022/04/03 00:43:59;;;;;;;3.43;2.70;;;14.90;78.40;;;;;;1997542;28;20247;-70
2022/04/03 00:44:57;;;;;;;3.67;2.53;;;14.90;78.40;;;;;;1997446;28;20458;-71
2022/04/03 00:45:59;;;;;;;4.27;2.83;;;14.90;78.40;;;;;;1997434;28;20205;-71
2022/04/03 00:46:58;;;;;;;3.50;2.50;;;14.90;78.50;;;;;;1997258;28;20231;-71
2022/04/03 00:47:59;;;;;;;3.97;2.50;;;14.90;78.50;;;;;;1997472;28;20178;-71
2022/04/03 00:48:59;;;;;;;2.88;2.50;;;14.90;78.60;;;;;;1997348;28;20627;-71
2022/04/03 00:49:59;;;;;;;4.80;2.80;;;14.90;78.50;;;;;;1996758;28;20560;-71
2022/04/03 00:50:57;;;;;;;4.85;3.10;;;14.90;78.60;;;;;;1996940;28;20197;-70
2022/04/03 00:51:57;;;;;;;3.47;2.47;;;14.90;78.60;;;;;;1997343;28;20189;-70
2022/04/03 00:52:55;;;;;;;2.60;2.40;;;14.90;78.60;;;;;;1997382;28;20274;-71
2022/04/03 00:53:54;;;;;;;4.07;2.77;;;14.90;78.60;;;;;;1997215;28;20259;-71
2022/04/03 00:54:53;;;;;;;5.63;2.93;;;14.90;78.70;;;;;;1997301;28;20562;-70
2022/04/03 00:55:51;;;;;;;5.50;2.50;;;14.90;78.80;;;;;;1997267;28;20170;-71
2022/04/03 00:56:51;;;;;;;4.23;2.57;;;14.90;78.80;;;;;;1997369;28;20440;-70
2022/04/03 00:57:50;;;;;;;4.45;2.70;;;14.90;78.90;;;;;;1997380;28;20335;-70
2022/04/03 00:58:49;;;;;;;4.43;2.78;;;14.80;78.80;;;;;;1997297;28;20177;-71
2022/04/03 00:59:49;;;;;;;3.30;2.60;;;14.80;78.70;;;;;;1997384;28;20170;-70
2022/04/03 01:00:48;;;;;;;2.95;2.42;;;14.90;78.90;;;;;;1997392;28;20240;-70
2022/04/03 01:01:46;;;;;;;3.70;2.87;;;14.90;78.90;;;;;;2001404;28;20229;-70
2022/04/03 01:02:45;;;;;;;3.17;2.33;;;14.90;78.90;;;;;;2004394;28;20273;-71
2022/04/03 01:03:44;;;;;;;2.60;2.40;;;14.80;78.80;;;;;;2004978;28;20196;-70
2022/04/03 01:04:43;;;;;;;4.70;2.60;;;14.90;78.90;;;;;;2002581;28;20236;-70
2022/04/03 01:05:41;;;;;;;4.80;2.80;;;14.80;78.90;;;;;;1999173;28;20431;-71
2022/04/03 01:06:40;;;;;;;4.17;2.50;;;14.80;78.90;;;;;;1998431;28;20201;-71
2022/04/03 01:07:40;;;;;;;3.70;2.70;;;14.80;78.90;;;;;;1997998;28;20213;-71
2022/04/03 01:08:39;;;;;;;3.70;2.40;;;14.80;78.90;;;;;;1997818;28;20257;-71
2022/04/03 01:09:37;;;;;;;4.07;2.80;;;14.90;79.00;;;;;;1997698;28;20197;-71
2022/04/03 01:10:36;;;;;;;5.00;2.83;;;14.80;78.90;;;;;;1997689;28;20196;-70
2022/04/03 01:11:35;;;;;;;3.53;2.53;;;14.90;79.00;;;;;;1997333;28;20185;-71
2022/04/03 01:12:42;;;;;;;4.55;2.75;;;14.80;78.90;;;;;;1997456;28;20166;-70
2022/04/03 01:13:46;;;;;;;2.55;2.10;;;14.90;78.90;;;;;;1997434;28;20174;-71
2022/04/03 01:14:46;;;;;;;6.13;3.40;;;14.80;78.90;;;;;;1997396;28;20672;-70
2022/04/03 01:15:56;;;;;;;4.88;2.67;;;14.80;78.80;;;;;;1997395;28;20246;-70
2022/04/03 01:16:54;;;;;;;4.63;3.17;;;14.80;78.80;;;;;;1996802;28;20562;-70
2022/04/03 01:17:53;;;;;;;2.57;2.30;;;14.80;78.90;;;;;;1996931;28;20185;-70
2022/04/03 01:18:51;;;;;;;4.07;2.70;;;14.90;79.00;;;;;;1997337;28;20170;-72
2022/04/03 01:19:50;;;;;;;4.07;2.87;;;14.80;78.90;;;;;;1997281;28;20201;-69
2022/04/03 01:20:49;;;;;;;4.70;3.23;;;14.80;78.90;;;;;;1997259;28;20189;-71
2022/04/03 01:21:47;;;;;;;5.80;2.67;;;14.80;79.00;;;;;;1997252;28;20186;-70
2022/04/03 01:22:46;;;;;;;3.90;2.70;;;14.80;79.00;;;;;;1997220;28;20257;-71
2022/04/03 01:23:46;;;;;;;3.53;3.20;;;14.80;79.00;;;;;;1996598;28;20174;-71
2022/04/03 01:24:46;;;;;;;4.68;2.50;;;14.90;79.00;;;;;;1996578;28;20293;-71
2022/04/03 01:25:45;;;;;;;3.13;2.30;;;14.80;79.00;;;;;;1997060;28;20181;-70
2022/04/03 01:26:44;;;;;;;4.97;3.00;;;14.80;79.00;;;;;;1997190;28;20284;-70
2022/04/03 01:27:43;;;;;;;5.53;3.10;;;14.80;79.00;;;;;;1997169;28;20413;-70
2022/04/03 01:28:42;;;;;;;3.80;2.63;;;14.80;79.10;;;;;;1997174;28;20439;-70
2022/04/03 01:29:41;;;;;;;4.60;3.00;;;14.80;79.00;;;;;;1996953;28;20228;-71
2022/04/03 01:30:39;;;;;;;3.50;2.30;;;14.80;79.00;;;;;;1997296;28;20312;-71
2022/04/03 01:31:38;;;;;;;3.23;2.50;;;14.80;79.00;;;;;;1997107;28;20170;-71
2022/04/03 01:32:36;;;;;;;4.43;2.83;;;14.80;79.10;;;;;;1997105;28;20649;-71
2022/04/03 01:33:35;;;;;;;4.37;2.87;;;14.80;79.10;;;;;;1997118;28;20182;-72
2022/04/03 01:34:34;;;;;;;5.03;3.03;;;14.80;79.10;;;;;;1997128;28;20210;-71
2022/04/03 01:35:32;;;;;;;5.80;3.17;;;14.80;79.10;;;;;;1997016;28;20713;-71
2022/04/03 01:36:31;;;;;;;5.10;2.83;;;14.80;79.10;;;;;;1997075;28;20200;-71
2022/04/03 01:37:29;;;;;;;3.13;2.20;;;14.80;79.10;;;;;;1996953;28;20630;-71
2022/04/03 01:38:28;;;;;;;4.13;2.60;;;14.80;79.10;;;;;;1997024;28;20181;-71
2022/04/03 01:39:27;;;;;;;4.23;2.80;;;14.80;79.10;;;;;;1997113;28;20257;-70
2022/04/03 01:40:25;;;;;;;3.83;2.90;;;14.80;79.10;;;;;;1996930;28;20540;-71
2022/04/03 01:41:24;;;;;;;4.40;2.70;;;14.70;79.10;;;;;;1996992;28;20170;-70
2022/04/03 01:42:22;;;;;;;5.80;3.60;;;14.80;79.20;;;;;;1997096;28;20216;-69
2022/04/03 01:43:21;;;;;;;4.70;2.93;;;14.80;79.20;;;;;;1996919;28;20297;-72
2022/04/03 01:44:21;;;;;;;3.87;2.53;;;14.70;79.10;;;;;;1997076;28;20177;-70
2022/04/03 01:45:20;;;;;;;5.65;2.80;;;14.80;79.20;;;;;;1996926;28;20177;-70
2022/04/03 01:46:19;;;;;;;5.45;3.42;;;14.80;79.30;;;;;;1996609;28;20178;-71
2022/04/03 01:47:18;;;;;;;5.77;3.47;;;14.80;79.30;;;;;;1996884;28;20249;-71
2022/04/03 01:48:16;;;;;;;3.67;2.93;;;14.80;79.20;;;;;;1997003;28;20177;-71
2022/04/03 01:49:15;;;;;;;4.97;2.77;;;14.80;79.40;;;;;;1997048;28;20450;-71
2022/04/03 01:50:13;;;;;;;3.70;2.40;;;14.80;79.40;;;;;;1996735;28;20623;-72
2022/04/03 01:51:12;;;;;;;6.83;2.53;;;14.80;79.30;;;;;;1996875;28;20169;-71
2022/04/03 01:52:11;;;;;;;3.80;2.50;;;14.80;79.30;;;;;;1996890;28;20205;-71
2022/04/03 01:53:09;;;;;;;4.20;2.70;;;14.70;79.20;;;;;;1996934;28;20196;-71
2022/04/03 01:54:08;;;;;;;3.73;2.60;;;14.70;79.50;;;;;;1996770;28;20243;-71
2022/04/03 01:55:07;;;;;;;3.80;2.60;;;14.70;79.40;;;;;;1996814;28;20169;-71
2022/04/03 01:56:07;;;;;;;4.13;2.83;;;14.70;79.40;;;;;;1996267;28;20185;-71
2022/04/03 01:57:06;;;;;;;2.63;2.25;;;14.70;79.40;;;;;;1996228;28;20177;-71
2022/04/03 01:58:08;;;;;;;3.80;2.93;;;14.70;79.50;;;;;;1996880;28;20201;-72
2022/04/03 01:59:06;;;;;;;2.80;2.13;;;14.80;79.50;;;;;;1996947;28;20685;-71
2022/04/03 02:00:06;;;;;;;3.17;2.70;;;14.80;79.50;;;;;;1996901;28;20173;-71
2022/04/03 02:01:05;;;;;;;4.00;2.80;;;14.80;79.50;;;;;;1996807;28;20231;-71
2022/04/03 02:02:03;;;;;;;4.27;2.90;;;14.80;79.40;;;;;;1996866;28;20177;-69
2022/04/03 02:03:02;;;;;;;4.77;2.87;;;14.80;79.50;;;;;;1996643;28;20259;-70
2022/04/03 02:04:03;;;;;;;6.33;3.30;;;14.80;79.50;;;;;;1996877;28;20174;-70
2022/04/03 02:05:03;;;;;;;3.38;3.08;;;14.80;79.40;;;;;;1996954;28;20174;-71
2022/04/03 02:06:01;;;;;;;6.65;3.35;;;14.80;79.50;;;;;;1996900;28;20174;-70
2022/04/03 02:07:03;;;;;;;4.67;2.63;;;14.80;79.50;;;;;;1996732;28;20194;-71
2022/04/03 02:08:01;;;;;;;3.63;2.83;;;14.70;79.40;;;;;;1996911;28;20522;-71
2022/04/03 02:09:04;;;;;;;3.50;2.40;;;14.80;79.50;;;;;;1996824;28;20182;-71
2022/04/03 02:10:08;;;;;;;4.60;2.60;;;14.80;79.60;;;;;;1996838;28;20170;-71
2022/04/03 02:11:07;;;;;;;4.70;3.03;;;14.70;79.50;;;;;;1996993;28;20508;-71
2022/04/03 02:12:06;;;;;;;3.80;2.53;;;14.70;79.50;;;;;;1996864;28;20236;-70
2022/04/03 02:13:05;;;;;;;5.60;2.70;;;14.70;79.50;;;;;;1996889;28;20177;-71
2022/04/03 02:14:05;;;;;;;3.38;2.55;;;14.70;79.40;;;;;;1996688;28;20445;-70
2022/04/03 02:15:05;;;;;;;4.85;2.85;;;14.70;79.50;;;;;;1996169;28;20193;-71
2022/04/03 02:16:04;;;;;;;5.40;3.10;;;14.70;80.30;;;;;;1996312;28;20301;-70
2022/04/03 02:17:02;;;;;;;6.30;3.37;;;14.70;79.60;;;;;;1996686;28;20197;-71
2022/04/03 02:18:01;;;;;;;4.90;2.60;;;14.70;79.60;;;;;;1996741;28;20488;-71
2022/04/03 02:18:59;;;;;;;3.93;3.13;;;14.70;79.60;;;;;;1996846;28;20170;-70
2022/04/03 02:19:58;;;;;;;4.33;2.60;;;14.70;79.60;;;;;;1996749;28;20174;-71
2022/04/03 02:20:56;;;;;;;4.40;2.53;;;14.70;79.60;;;;;;1996823;28;20181;-71
2022/04/03 02:21:55;;;;;;;4.53;2.70;;;14.70;79.60;;;;;;1996683;28;20177;-71
2022/04/03 02:22:54;;;;;;;3.23;2.53;;;14.70;79.60;;;;;;1996704;28;20532;-70
2022/04/03 02:23:52;;;;;;;3.17;2.47;;;14.70;79.60;;;;;;1996620;28;20169;-71
2022/04/03 02:24:51;;;;;;;2.80;2.10;;;14.60;79.60;;;;;;1996685;28;20177;-70
2022/04/03 02:25:50;;;;;;;5.30;3.17;;;14.70;79.70;;;;;;1996133;28;20186;-70
2022/04/03 02:26:49;;;;;;;3.67;2.40;;;14.60;79.60;;;;;;1988160;28;20253;-70
2022/04/03 02:27:48;;;;;;;4.30;3.07;;;14.60;79.60;;;;;;1995886;28;20268;-70
2022/04/03 02:28:46;;;;;;;3.43;1.93;;;14.70;79.70;;;;;;1996569;28;20173;-70
2022/04/03 02:29:45;;;;;;;4.80;3.10;;;14.60;79.60;;;;;;1996013;28;20176;-70
2022/04/03 02:30:44;;;;;;;6.57;2.60;;;14.70;79.70;;;;;;1996188;28;20174;-71
2022/04/03 02:31:43;;;;;;;3.53;2.67;;;14.70;79.60;;;;;;1996747;28;20672;-70
2022/04/03 02:32:41;;;;;;;3.25;2.40;;;14.70;79.70;;;;;;1996712;28;20217;-70
2022/04/03 02:33:40;;;;;;;5.60;2.37;;;14.70;80.40;;;;;;1996776;28;20185;-70
2022/04/03 02:34:38;;;;;;;3.83;2.43;;;14.70;79.80;;;;;;1996492;28;20732;-70
2022/04/03 02:35:37;;;;;;;6.40;2.60;;;14.60;79.70;;;;;;1996689;28;20220;-70
2022/04/03 02:36:36;;;;;;;2.53;2.27;;;14.60;79.70;;;;;;1996648;28;20277;-71
2022/04/03 02:37:36;;;;;;;3.90;2.87;;;14.60;79.70;;;;;;1996644;28;20173;-71
2022/04/03 02:38:36;;;;;;;4.45;2.83;;;14.70;79.70;;;;;;1996620;28;20575;-70
2022/04/03 02:39:34;;;;;;;2.92;2.30;;;14.60;79.70;;;;;;1996591;28;20170;-71
2022/04/03 02:40:33;;;;;;;4.93;2.47;;;14.60;79.70;;;;;;1996692;28;20197;-71
2022/04/03 02:41:32;;;;;;;2.40;2.20;;;14.60;79.70;;;;;;1996537;28;20630;-71
2022/04/03 02:42:31;;;;;;;4.30;2.37;;;14.60;79.80;;;;;;1996631;28;20454;-71
2022/04/03 02:43:30;;;;;;;4.00;2.92;;;14.60;79.80;;;;;;1996563;28;20421;-71
2022/04/03 02:44:28;;;;;;;3.03;2.50;;;14.60;79.80;;;;;;1996515;28;20572;-71
2022/04/03 02:45:27;;;;;;;3.00;2.50;;;14.60;79.80;;;;;;1996509;28;20178;-71
2022/04/03 02:46:27;;;;;;;3.83;2.30;;;14.60;79.80;;;;;;1996306;28;20225;-70
2022/04/03 02:47:26;;;;;;;5.00;2.42;;;14.60;79.80;;;;;;1996575;28;20257;-70
2022/04/03 02:48:24;;;;;;;3.35;2.20;;;14.60;80.00;;;;;;1996557;28;20257;-70
2022/04/03 02:49:23;;;;;;;3.70;2.77;;;14.60;79.90;;;;;;1996475;28;20181;-70
2022/04/03 02:50:24;;;;;;;4.10;2.30;;;14.60;79.90;;;;;;1996536;28;20178;-70
2022/04/03 02:51:23;;;;;;;5.03;2.85;;;14.60;79.90;;;;;;1996858;28;20177;-71
2022/04/03 02:52:21;;;;;;;2.60;2.40;;;14.60;79.90;;;;;;1996551;28;20178;-71
2022/04/03 02:53:20;;;;;;;3.80;2.10;;;14.60;79.80;;;;;;1996652;28;20225;-70
2022/04/03 02:54:19;;;;;;;4.00;2.80;;;14.60;79.80;;;;;;1996449;28;20209;-70
2022/04/03 02:55:19;;;;;;;4.17;2.80;;;14.60;79.80;;;;;;1996521;28;20220;-70
2022/04/03 02:56:17;;;;;;;2.72;2.10;;;14.60;79.80;;;;;;1996449;28;20528;-70
2022/04/03 02:57:17;;;;;;;2.53;2.23;;;14.60;79.80;;;;;;1996582;28;20259;-70
2022/04/03 02:58:15;;;;;;;3.13;2.20;;;14.60;79.80;;;;;;1996603;28;20169;-70
2022/04/03 02:59:14;;;;;;;2.70;2.33;;;14.60;79.80;;;;;;1996467;28;20178;-70
2022/04/03 03:00:17;;;;;;;7.20;2.60;;;14.60;79.80;;;;;;1996480;28;20586;-70
2022/04/03 03:01:15;;;;;;;4.43;2.42;;;14.60;80.00;;;;;;1996504;28;20177;-70
2022/04/03 03:02:14;;;;;;;6.03;2.90;;;14.60;80.00;;;;;;1996892;28;20174;-70
2022/04/03 03:03:12;;;;;;;5.53;2.60;;;14.50;79.90;;;;;;1998109;28;20213;-70
2022/04/03 03:04:11;;;;;;;2.40;2.20;;;14.50;79.90;;;;;;1998049;28;20165;-70
2022/04/03 03:05:10;;;;;;;3.07;2.33;;;14.50;80.00;;;;;;1998098;28;20672;-71
2022/04/03 03:06:08;;;;;;;6.60;2.20;;;14.50;80.00;;;;;;1998043;28;20606;-70
2022/04/03 03:07:08;;;;;;;5.67;2.90;;;14.50;80.00;;;;;;1998085;28;20433;-71
2022/04/03 03:08:07;;;;;;;3.70;2.35;;;14.50;80.00;;;;;;1998186;28;20281;-71
2022/04/03 03:09:05;;;;;;;6.50;2.33;;;14.50;80.00;;;;;;1998014;28;20182;-70
2022/04/03 03:10:16;;;;;;;4.40;2.80;;;14.60;80.00;;;;;;1998063;28;20208;-71
2022/04/03 03:11:15;;;;;;;2.03;1.83;;;14.60;80.00;;;;;;1998249;28;20244;-70
2022/04/03 03:12:14;;;;;;;3.23;2.50;;;14.60;80.10;;;;;;1998132;28;20674;-70
2022/04/03 03:13:12;;;;;;;5.30;2.70;;;14.50;80.10;;;;;;1998136;28;20859;-71
2022/04/03 03:14:11;;;;;;;3.93;3.03;;;14.60;80.20;;;;;;1997996;28;20485;-71
2022/04/03 03:15:10;;;;;;;3.93;2.53;;;14.60;80.10;;;;;;1998117;28;20180;-70
2022/04/03 03:16:08;;;;;;;2.90;2.20;;;14.50;80.10;;;;;;1998104;28;20180;-70
2022/04/03 03:17:07;;;;;;;3.57;2.37;;;14.50;80.00;;;;;;1997981;28;20801;-70
2022/04/03 03:18:05;;;;;;;4.37;2.60;;;14.50;80.10;;;;;;1998102;28;20170;-70
2022/04/03 03:19:04;;;;;;;3.23;2.37;;;14.60;80.20;;;;;;1998093;28;20181;-70
2022/04/03 03:20:03;;;;;;;3.87;2.70;;;14.50;80.20;;;;;;1998044;28;20169;-71
2022/04/03 03:21:02;;;;;;;4.93;3.00;;;14.50;80.20;;;;;;1997917;28;20170;-71
2022/04/03 03:22:00;;;;;;;8.20;2.97;;;14.50;80.10;;;;;;1997934;28;20185;-71
2022/04/03 03:23:00;;;;;;;4.80;2.80;;;14.50;80.00;;;;;;1998096;28;20644;-71
2022/04/03 03:23:58;;;;;;;4.70;2.92;;;14.50;80.20;;;;;;1998127;28;20205;-71
2022/04/03 03:24:57;;;;;;;4.20;2.20;;;14.50;80.00;;;;;;1997997;28;20170;-71
2022/04/03 03:25:55;;;;;;;2.67;2.43;;;14.50;80.10;;;;;;1997920;28;20513;-71
2022/04/03 03:26:54;;;;;;;2.90;2.30;;;14.50;80.00;;;;;;1997938;28;20197;-71
2022/04/03 03:27:53;;;;;;;3.53;2.53;;;14.50;80.10;;;;;;1997906;28;20166;-71
2022/04/03 03:28:51;;;;;;;4.53;3.10;;;14.50;80.00;;;;;;1997890;28;20179;-70
2022/04/03 03:29:50;;;;;;;3.10;2.30;;;14.50;80.20;;;;;;1997961;28;20173;-71
2022/04/03 03:30:48;;;;;;;3.07;2.60;;;14.50;80.10;;;;;;1997971;28;20630;-71
2022/04/03 03:31:47;;;;;;;3.03;2.30;;;14.50;80.10;;;;;;1997942;28;20178;-71
2022/04/03 03:32:45;;;;;;;3.70;2.70;;;14.50;80.20;;;;;;1997960;28;20258;-71
2022/04/03 03:33:44;;;;;;;5.97;2.67;;;14.50;80.20;;;;;;1997868;28;20182;-71
2022/04/03 03:34:42;;;;;;;4.30;2.80;;;14.60;80.20;;;;;;1997715;28;20292;-71
2022/04/03 03:35:41;;;;;;;4.00;2.17;;;14.50;80.20;;;;;;1998134;28;20190;-71
2022/04/03 03:36:40;;;;;;;3.40;2.47;;;14.50;80.10;;;;;;1997769;28;20682;-71
2022/04/03 03:37:39;;;;;;;3.47;2.30;;;14.50;80.20;;;;;;1997841;28;20166;-70
2022/04/03 03:38:37;;;;;;;3.10;2.67;;;14.50;80.20;;;;;;1997958;28;20260;-71
2022/04/03 03:39:36;;;;;;;3.00;2.50;;;14.50;80.20;;;;;;1997907;28;20634;-71
2022/04/03 03:40:38;;;;;;;4.40;2.63;;;14.50;80.20;;;;;;1997949;28;20222;-71
2022/04/03 03:41:37;;;;;;;4.13;2.38;;;14.50;80.20;;;;;;1997803;28;20167;-71
2022/04/03 03:42:35;;;;;;;3.90;2.80;;;14.50;80.30;;;;;;1997843;28;20181;-71
2022/04/03 03:43:34;;;;;;;3.30;2.23;;;14.50;80.20;;;;;;1997916;28;20261;-71
2022/04/03 03:44:32;;;;;;;3.40;2.43;;;14.50;80.30;;;;;;1997745;28;20229;-70
2022/04/03 03:45:31;;;;;;;3.27;2.30;;;14.40;80.30;;;;;;1997820;28;20228;-71
2022/04/03 03:46:29;;;;;;;2.53;2.33;;;14.50;80.40;;;;;;1997635;28;20218;-70
2022/04/03 03:47:28;;;;;;;2.67;2.00;;;14.50;80.30;;;;;;1997743;28;20646;-71
2022/04/03 03:48:26;;;;;;;4.87;2.27;;;14.50;80.30;;;;;;1997737;28;20185;-72
2022/04/03 03:49:26;;;;;;;3.63;2.27;;;14.50;80.20;;;;;;1997749;28;20177;-70
2022/04/03 03:50:25;;;;;;;3.17;2.60;;;14.50;80.20;;;;;;1997779;28;20177;-72
2022/04/03 03:51:23;;;;;;;8.90;2.53;;;14.50;80.30;;;;;;1997859;28;20181;-70
2022/04/03 03:52:23;;;;;;;3.33;2.33;;;14.50;80.20;;;;;;1998683;28;20556;-71
2022/04/03 03:53:22;;;;;;;4.40;2.50;;;14.50;80.30;;;;;;2002976;28;20193;-71
2022/04/03 03:54:20;;;;;;;2.87;2.37;;;14.50;80.30;;;;;;2003507;28;20276;-71
2022/04/03 03:55:20;;;;;;;2.90;2.33;;;14.40;80.20;;;;;;2003658;28;20205;-71
2022/04/03 03:56:18;;;;;;;3.33;2.30;;;14.50;80.30;;;;;;2003637;28;20724;-71
2022/04/03 03:57:17;;;;;;;2.57;2.00;;;14.50;80.30;;;;;;2000176;28;20182;-71
2022/04/03 03:58:16;;;;;;;5.57;2.93;;;14.40;80.20;;;;;;1999690;28;20162;-71
2022/04/03 03:59:14;;;;;;;2.70;2.20;;;14.40;80.30;;;;;;1999608;28;20170;-70
2022/04/03 04:00:14;;;;;;;2.80;2.00;;;14.40;80.30;;;;;;1999572;28;20269;-71
2022/04/03 04:01:13;;;;;;;3.17;2.60;;;14.50;80.40;;;;;;1999668;28;20721;-71
2022/04/03 04:02:12;;;;;;;4.20;2.57;;;14.50;80.50;;;;;;1998698;28;20206;-71
2022/04/03 04:03:10;;;;;;;2.97;2.10;;;14.50;80.50;;;;;;1998380;28;20188;-71
2022/04/03 04:04:09;;;;;;;2.40;2.20;;;14.50;80.40;;;;;;1998024;28;20316;-71
2022/04/03 04:05:08;;;;;;;3.63;2.10;;;14.50;80.50;;;;;;1997841;28;20176;-71
2022/04/03 04:06:06;;;;;;;4.65;2.55;;;14.40;80.40;;;;;;1998101;28;20182;-70
2022/04/03 04:07:05;;;;;;;3.40;2.20;;;14.40;80.50;;;;;;1998011;28;20178;-72
2022/04/03 04:08:04;;;;;;;2.20;1.77;;;14.50;80.50;;;;;;1997714;28;20188;-71
2022/04/03 04:09:03;;;;;;;3.37;2.60;;;14.40;80.40;;;;;;1997836;28;20173;-71
2022/04/03 04:10:03;;;;;;;2.90;2.60;;;14.50;80.40;;;;;;1997717;28;20198;-71
2022/04/03 04:11:03;;;;;;;2.45;2.05;;;14.40;80.40;;;;;;1997881;28;20185;-71
2022/04/03 04:12:01;;;;;;;2.83;2.00;;;14.40;80.40;;;;;;1997690;28;20166;-71
2022/04/03 04:13:00;;;;;;;3.60;2.10;;;14.40;80.50;;;;;;1997612;28;20698;-71
2022/04/03 04:13:59;;;;;;;3.80;2.97;;;14.40;80.50;;;;;;1997517;28;20208;-71
2022/04/03 04:14:58;;;;;;;4.13;2.50;;;14.40;80.60;;;;;;1997641;28;20253;-70
2022/04/03 04:15:56;;;;;;;2.90;1.83;;;14.40;80.50;;;;;;1997621;28;20178;-70
2022/04/03 04:16:55;;;;;;;2.57;1.90;;;14.40;80.70;;;;;;1997573;28;20277;-72
2022/04/03 04:17:54;;;;;;;3.03;2.60;;;14.40;81.30;;;;;;1997673;28;20169;-71
2022/04/03 04:18:53;;;;;;;3.63;2.72;;;14.40;80.70;;;;;;1997587;28;20248;-70
2022/04/03 04:19:51;;;;;;;3.50;2.57;;;14.40;80.70;;;;;;1997470;28;20233;-70
2022/04/03 04:20:53;;;;;;;3.70;2.10;;;14.40;80.70;;;;;;1997502;28;20232;-70
2022/04/03 04:21:52;;;;;;;3.22;2.35;;;14.40;80.80;;;;;;1997367;28;20174;-70
2022/04/03 04:22:54;;;;;;;3.00;2.40;;;14.40;80.70;;;;;;1997571;28;20252;-70
2022/04/03 04:23:53;;;;;;;3.00;2.50;;;14.40;80.60;;;;;;1997441;28;20170;-71
2022/04/03 04:24:52;;;;;;;4.27;2.10;;;14.40;80.60;;;;;;1997615;28;20177;-70
2022/04/03 04:25:51;;;;;;;4.80;2.90;;;14.40;80.70;;;;;;1997520;28;20413;-70
2022/04/03 04:26:50;;;;;;;3.97;2.30;;;14.30;80.60;;;;;;1997659;28;20630;-70
2022/04/03 04:27:48;;;;;;;2.33;1.83;;;14.40;80.60;;;;;;1997514;28;20182;-70
2022/04/03 04:28:48;;;;;;;3.67;2.27;;;14.40;80.70;;;;;;1997531;28;20175;-71
2022/04/03 04:29:47;;;;;;;3.72;3.17;;;14.40;80.60;;;;;;1997549;28;20690;-71
2022/04/03 04:30:45;;;;;;;3.50;2.60;;;14.40;80.60;;;;;;1997626;28;20182;-71
2022/04/03 04:31:44;;;;;;;3.23;2.50;;;14.30;80.60;;;;;;1997574;28;20177;-71
2022/04/03 04:32:43;;;;;;;2.30;2.00;;;14.30;80.60;;;;;;1997453;28;20181;-70
2022/04/03 04:33:41;;;;;;;2.87;2.27;;;14.30;80.60;;;;;;1997545;28;20205;-71
2022/04/03 04:34:40;;;;;;;3.37;2.33;;;14.30;80.70;;;;;;1997316;28;20782;-71
2022/04/03 04:35:38;;;;;;;2.40;2.20;;;14.30;81.40;;;;;;1997449;28;20177;-70
2022/04/03 04:36:37;;;;;;;2.77;1.90;;;14.40;80.90;;;;;;1997305;28;20646;-70
2022/04/03 04:37:36;;;;;;;3.20;1.80;;;14.40;80.70;;;;;;1997342;28;20208;-71
2022/04/03 04:38:36;;;;;;;2.28;2.08;;;14.30;80.70;;;;;;1997461;28;20581;-70
2022/04/03 04:39:34;;;;;;;3.55;2.17;;;14.40;80.90;;;;;;1997484;28;20182;-70
2022/04/03 04:40:33;;;;;;;4.40;2.50;;;14.40;80.70;;;;;;1997475;28;20177;-71
2022/04/03 04:41:32;;;;;;;2.20;2.00;;;14.30;80.70;;;;;;1997451;28;20169;-71
2022/04/03 04:42:30;;;;;;;2.50;2.07;;;14.30;80.80;;;;;;1997333;28;20228;-71
2022/04/03 04:43:29;;;;;;;3.17;2.40;;;14.30;80.90;;;;;;1997479;28;20178;-71
2022/04/03 04:44:27;;;;;;;2.30;2.10;;;14.30;80.80;;;;;;1997364;28;20186;-70
2022/04/03 04:45:26;;;;;;;2.20;2.00;;;14.40;80.90;;;;;;1997410;28;20178;-71
2022/04/03 04:46:24;;;;;;;3.27;2.17;;;14.40;80.80;;;;;;1997228;28;20253;-70
2022/04/03 04:47:23;;;;;;;2.33;2.13;;;14.30;80.70;;;;;;1997418;28;20174;-71
2022/04/03 04:48:22;;;;;;;2.30;2.10;;;14.30;80.80;;;;;;1997356;28;20185;-72
2022/04/03 04:49:20;;;;;;;2.23;2.00;;;14.30;80.80;;;;;;1997460;28;20181;-71
2022/04/03 04:50:19;;;;;;;4.73;2.73;;;14.30;80.90;;;;;;1997651;28;20264;-71
2022/04/03 04:51:17;;;;;;;2.90;2.50;;;14.30;80.90;;;;;;1997281;28;20170;-71
2022/04/03 04:52:16;;;;;;;2.23;1.93;;;14.30;81.10;;;;;;1997443;28;20643;-71
2022/04/03 04:53:15;;;;;;;2.33;2.10;;;14.30;81.10;;;;;;1997442;28;20170;-71
2022/04/03 04:54:15;;;;;;;5.53;2.70;;;14.30;81.10;;;;;;1997207;28;20549;-71
2022/04/03 04:55:13;;;;;;;2.25;1.95;;;14.30;81.10;;;;;;1997480;28;20549;-71
2022/04/03 04:56:12;;;;;;;2.50;2.30;;;14.30;81.10;;;;;;1997276;28;20253;-70
2022/04/03 04:57:12;;;;;;;4.07;1.90;;;14.30;81.10;;;;;;1997264;28;20657;-70
2022/04/03 04:58:10;;;;;;;2.47;2.10;;;14.30;81.00;;;;;;1997236;28;20253;-70
2022/04/03 04:59:09;;;;;;;3.20;2.10;;;14.30;81.20;;;;;;1997172;28;20170;-71
2022/04/03 05:00:09;;;;;;;1.80;1.67;;;14.30;81.10;;;;;;1997190;28;20174;-70
2022/04/03 05:01:08;;;;;;;2.65;2.20;;;14.30;81.20;;;;;;1997108;28;20218;-70
2022/04/03 05:02:06;;;;;;;9.03;2.90;;;14.30;81.20;;;;;;1997182;28;20254;-71
2022/04/03 05:03:05;;;;;;;4.00;2.47;;;14.30;81.20;;;;;;1997446;28;20161;-71
2022/04/03 05:04:04;;;;;;;4.30;2.50;;;14.30;81.00;;;;;;1997266;28;20536;-70
2022/04/03 05:05:05;;;;;;;2.33;2.10;;;14.30;81.10;;;;;;1997344;28;20201;-71
2022/04/03 05:06:06;;;;;;;4.07;1.85;;;14.30;81.20;;;;;;1997241;28;20162;-71
2022/04/03 05:07:05;;;;;;;2.53;1.70;;;14.20;81.10;;;;;;1997062;28;20198;-71
2022/04/03 05:08:04;;;;;;;4.00;2.28;;;14.30;81.30;;;;;;1996547;28;20178;-71